sensor_id;sensor_type;location;lat;lon;timestamp;pressure;altitude;pressure_sealevel;temperature;humidity
10510;BME280;5303;53.266;10.410;2023-03-29T00:00:47;101639.69;;;6.48;100.00
10510;BME280;5303;53.266;10.410;2023-03-29T00:03:13;101646.09;;;6.47;100.00
10510;BME280;5303;53.266;10.410;2023-03-29T00:05:39;101636.13;;;6.47;100.00
10510;BME280;5303;53.266;10.410;2023-03-29T00:08:06;101639.69;;;6.48;100.00
10510;BME280;5303;53.266;10.410;2023-03-29T00:10:32;101629.50;;;6.40;100.00
10510;BME280;5303;53.266;10.410;2023-03-29T00:12:58;101624.69;;;6.44;100.00
10510;BME280;5303;53.266;10.410;2023-03-29T00:15:23;101624.19;;;6.50;100.00
10510;BME280;5303;53.266;10.410;2023-03-29T00:17:49;101615.94;;;6.51;100.00
10510;BME280;5303;53.266;10.410;2023-03-29T00:20:14;101610.00;;;6.58;100.00
10510;BME280;5303;53.266;10.410;2023-03-29T00:22:41;101603.03;;;6.55;100.00
10510;BME280;5303;53.266;10.410;2023-03-29T00:25:07;101598.72;;;6.52;100.00
10510;BME280;5303;53.266;10.410;2023-03-29T00:27:32;101599.84;;;6.39;100.00
10510;BME280;5303;53.266;10.410;2023-03-29T00:29:58;101605.56;;;6.36;100.00
10510;BME280;5303;53.266;10.410;2023-03-29T00:32:24;101591.72;;;6.39;100.00
10510;BME280;5303;53.266;10.410;2023-03-29T00:34:50;101591.38;;;6.43;100.00
10510;BME280;5303;53.266;10.410;2023-03-29T00:37:16;101585.34;;;6.40;100.00
10510;BME280;5303;53.266;10.410;2023-03-29T00:39:45;101585.22;;;6.41;100.00
10510;BME280;5303;53.266;10.410;2023-03-29T00:42:12;101576.75;;;6.35;100.00
10510;BME280;5303;53.266;10.410;2023-03-29T00:47:42;101573.44;;;6.42;100.00
10510;BME280;5303;53.266;10.410;2023-03-29T00:52:37;101565.06;;;6.34;100.00
10510;BME280;5303;53.266;10.410;2023-03-29T00:55:07;101570.63;;;6.21;100.00
10510;BME280;5303;53.266;10.410;2023-03-29T00:57:36;101559.56;;;6.24;100.00
10510;BME280;5303;53.266;10.410;2023-03-29T01:00:03;101556.84;;;6.24;100.00
10510;BME280;5303;53.266;10.410;2023-03-29T01:02:30;101554.16;;;6.24;100.00
10510;BME280;5303;53.266;10.410;2023-03-29T01:05:02;101559.72;;;6.23;100.00
10510;BME280;5303;53.266;10.410;2023-03-29T01:07:40;101551.34;;;6.15;100.00
10510;BME280;5303;53.266;10.410;2023-03-29T01:10:15;101543.75;;;6.09;100.00
10510;BME280;5303;53.266;10.410;2023-03-29T01:12:45;101547.19;;;6.11;100.00
10510;BME280;5303;53.266;10.410;2023-03-29T01:15:23;101535.03;;;6.05;100.00
10510;BME280;5303;53.266;10.410;2023-03-29T01:17:51;101532.31;;;6.05;100.00
10510;BME280;5303;53.266;10.410;2023-03-29T01:20:24;101528.38;;;6.09;100.00
10510;BME280;5303;53.266;10.410;2023-03-29T01:23:27;101516.50;;;6.00;100.00
10510;BME280;5303;53.266;10.410;2023-03-29T01:26:40;101515.13;;;5.95;100.00
10510;BME280;5303;53.266;10.410;2023-03-29T01:29:15;101506.28;;;5.93;100.00
10510;BME280;5303;53.266;10.410;2023-03-29T01:31:48;101504.66;;;5.90;100.00
10510;BME280;5303;53.266;10.410;2023-03-29T01:34:23;101495.09;;;5.86;100.00
10510;BME280;5303;53.266;10.410;2023-03-29T01:36:59;101488.94;;;5.84;100.00
10510;BME280;5303;53.266;10.410;2023-03-29T01:39:28;101491.03;;;5.80;100.00
10510;BME280;5303;53.266;10.410;2023-03-29T01:42:03;101494.59;;;5.81;100.00
10510;BME280;5303;53.266;10.410;2023-03-29T01:44:45;101490.44;;;5.77;100.00
10510;BME280;5303;53.266;10.410;2023-03-29T01:47:50;101487.13;;;5.73;100.00
10510;BME280;5303;53.266;10.410;2023-03-29T01:53:02;101480.97;;;5.71;100.00
10510;BME280;5303;53.266;10.410;2023-03-29T01:55:33;101479.41;;;5.69;100.00
10510;BME280;5303;53.266;10.410;2023-03-29T01:58:01;101472.41;;;5.66;100.00
10510;BME280;5303;53.266;10.410;2023-03-29T02:00:28;101472.03;;;5.59;100.00
10510;BME280;5303;53.266;10.410;2023-03-29T02:02:55;101466.63;;;5.59;100.00
10510;BME280;5303;53.266;10.410;2023-03-29T02:05:25;101461.47;;;5.56;100.00
10510;BME280;5303;53.266;10.410;2023-03-29T02:07:53;101450.91;;;5.53;100.00
10510;BME280;5303;53.266;10.410;2023-03-29T02:10:20;101444.06;;;5.49;100.00
10510;BME280;5303;53.266;10.410;2023-03-29T02:12:47;101447.13;;;5.45;100.00
10510;BME280;5303;53.266;10.410;2023-03-29T02:15:15;101442.09;;;5.40;100.00
10510;BME280;5303;53.266;10.410;2023-03-29T02:17:40;101437.91;;;5.36;100.00
10510;BME280;5303;53.266;10.410;2023-03-29T02:22:45;101433.75;;;5.32;100.00
10510;BME280;5303;53.266;10.410;2023-03-29T02:25:11;101429.97;;;5.23;100.00
10510;BME280;5303;53.266;10.410;2023-03-29T02:27:37;101418.78;;;5.28;100.00
10510;BME280;5303;53.266;10.410;2023-03-29T02:30:08;101429.34;;;5.31;100.00
10510;BME280;5303;53.266;10.410;2023-03-29T02:32:46;101423.44;;;5.26;100.00
10510;BME280;5303;53.266;10.410;2023-03-29T02:35:20;101428.72;;;5.27;100.00
10510;BME280;5303;53.266;10.410;2023-03-29T02:37:48;101425.78;;;5.30;100.00
10510;BME280;5303;53.266;10.410;2023-03-29T02:40:17;101420.63;;;5.27;100.00
10510;BME280;5303;53.266;10.410;2023-03-29T02:42:44;101419.63;;;5.28;100.00
10510;BME280;5303;53.266;10.410;2023-03-29T02:45:13;101411.16;;;5.33;100.00
10510;BME280;5303;53.266;10.410;2023-03-29T02:47:44;101408.06;;;5.37;100.00
10510;BME280;5303;53.266;10.410;2023-03-29T02:50:10;101405.75;;;5.33;100.00
10510;BME280;5303;53.266;10.410;2023-03-29T02:52:39;101401.47;;;5.30;100.00
10510;BME280;5303;53.266;10.410;2023-03-29T02:55:14;101405.28;;;5.28;100.00
10510;BME280;5303;53.266;10.410;2023-03-29T02:57:41;101403.81;;;5.24;100.00
10510;BME280;5303;53.266;10.410;2023-03-29T03:00:08;101404.53;;;5.26;100.00
10510;BME280;5303;53.266;10.410;2023-03-29T03:02:35;101400.50;;;5.20;100.00
10510;BME280;5303;53.266;10.410;2023-03-29T03:05:01;101397.66;;;5.33;100.00
10510;BME280;5303;53.266;10.410;2023-03-29T03:07:27;101396.91;;;5.31;100.00
10510;BME280;5303;53.266;10.410;2023-03-29T03:09:53;101395.72;;;5.24;100.00
10510;BME280;5303;53.266;10.410;2023-03-29T03:12:18;101396.56;;;5.24;100.00
10510;BME280;5303;53.266;10.410;2023-03-29T03:14:43;101398.06;;;5.17;100.00
10510;BME280;5303;53.266;10.410;2023-03-29T03:17:09;101390.56;;;5.21;100.00
10510;BME280;5303;53.266;10.410;2023-03-29T03:19:34;101387.09;;;5.19;100.00
10510;BME280;5303;53.266;10.410;2023-03-29T03:22:00;101381.09;;;5.15;100.00
10510;BME280;5303;53.266;10.410;2023-03-29T03:24:25;101380.97;;;5.17;100.00
10510;BME280;5303;53.266;10.410;2023-03-29T03:26:52;101376.69;;;5.14;100.00
10510;BME280;5303;53.266;10.410;2023-03-29T03:29:17;101382.59;;;5.08;100.00
10510;BME280;5303;53.266;10.410;2023-03-29T03:31:43;101382.69;;;5.06;100.00
10510;BME280;5303;53.266;10.410;2023-03-29T03:34:09;101380.59;;;5.10;100.00
10510;BME280;5303;53.266;10.410;2023-03-29T03:36:35;101378.53;;;5.02;100.00
10510;BME280;5303;53.266;10.410;2023-03-29T03:39:01;101372.88;;;5.05;100.00
10510;BME280;5303;53.266;10.410;2023-03-29T03:41:27;101378.91;;;4.98;100.00
10510;BME280;5303;53.266;10.410;2023-03-29T03:43:52;101378.63;;;5.01;100.00
10510;BME280;5303;53.266;10.410;2023-03-29T03:46:18;101378.28;;;5.05;100.00
10510;BME280;5303;53.266;10.410;2023-03-29T03:48:44;101368.47;;;5.04;100.00
10510;BME280;5303;53.266;10.410;2023-03-29T03:51:10;101367.13;;;4.99;100.00
10510;BME280;5303;53.266;10.410;2023-03-29T03:53:35;101366.88;;;5.02;100.00
10510;BME280;5303;53.266;10.410;2023-03-29T03:56:01;101362.44;;;5.01;100.00
10510;BME280;5303;53.266;10.410;2023-03-29T03:58:36;101365.63;;;5.06;100.00
10510;BME280;5303;53.266;10.410;2023-03-29T04:01:03;101355.09;;;5.03;100.00
10510;BME280;5303;53.266;10.410;2023-03-29T04:03:28;101365.38;;;5.09;100.00
10510;BME280;5303;53.266;10.410;2023-03-29T04:05:54;101357.28;;;5.09;100.00
10510;BME280;5303;53.266;10.410;2023-03-29T04:08:19;101354.84;;;5.06;100.00
10510;BME280;5303;53.266;10.410;2023-03-29T04:10:53;101344.88;;;5.06;100.00
10510;BME280;5303;53.266;10.410;2023-03-29T04:13:20;101351.03;;;5.08;100.00
10510;BME280;5303;53.266;10.410;2023-03-29T04:15:46;101347.25;;;5.11;100.00
10510;BME280;5303;53.266;10.410;2023-03-29T04:18:14;101349.19;;;5.09;100.00
10510;BME280;5303;53.266;10.410;2023-03-29T04:20:39;101340.84;;;5.12;100.00
10510;BME280;5303;53.266;10.410;2023-03-29T04:23:04;101347.84;;;5.14;100.00
10510;BME280;5303;53.266;10.410;2023-03-29T04:25:30;101352.84;;;5.19;100.00
10510;BME280;5303;53.266;10.410;2023-03-29T04:27:55;101347.81;;;5.26;100.00
10510;BME280;5303;53.266;10.410;2023-03-29T04:30:21;101356.59;;;5.50;100.00
10510;BME280;5303;53.266;10.410;2023-03-29T04:32:46;101353.91;;;5.39;100.00
10510;BME280;5303;53.266;10.410;2023-03-29T04:35:11;101358.94;;;5.44;100.00
10510;BME280;5303;53.266;10.410;2023-03-29T04:37:37;101352.44;;;5.35;100.00
10510;BME280;5303;53.266;10.410;2023-03-29T04:40:05;101353.91;;;5.39;100.00
10510;BME280;5303;53.266;10.410;2023-03-29T04:42:33;101360.53;;;5.46;100.00
10510;BME280;5303;53.266;10.410;2023-03-29T04:44:58;101354.63;;;5.52;100.00
10510;BME280;5303;53.266;10.410;2023-03-29T04:47:25;101358.31;;;5.51;100.00
10510;BME280;5303;53.266;10.410;2023-03-29T04:49:53;101345.22;;;5.68;100.00
10510;BME280;5303;53.266;10.410;2023-03-29T04:52:18;101355.06;;;5.69;100.00
10510;BME280;5303;53.266;10.410;2023-03-29T04:54:44;101345.44;;;5.76;100.00
10510;BME280;5303;53.266;10.410;2023-03-29T04:57:09;101335.91;;;5.72;100.00
10510;BME280;5303;53.266;10.410;2023-03-29T04:59:34;101333.97;;;5.63;100.00
10510;BME280;5303;53.266;10.410;2023-03-29T05:02:00;101330.59;;;5.70;100.00
10510;BME280;5303;53.266;10.410;2023-03-29T05:04:27;101330.50;;;5.72;100.00
10510;BME280;5303;53.266;10.410;2023-03-29T05:06:53;101334.50;;;5.77;100.00
10510;BME280;5303;53.266;10.410;2023-03-29T05:09:19;101336.22;;;5.78;100.00
10510;BME280;5303;53.266;10.410;2023-03-29T05:11:45;101326.00;;;5.82;100.00
10510;BME280;5303;53.266;10.410;2023-03-29T05:14:10;101328.72;;;5.82;100.00
10510;BME280;5303;53.266;10.410;2023-03-29T05:16:35;101330.91;;;5.88;100.00
10510;BME280;5303;53.266;10.410;2023-03-29T05:19:02;101332.97;;;5.96;100.00
10510;BME280;5303;53.266;10.410;2023-03-29T05:21:28;101337.13;;;6.00;100.00
10510;BME280;5303;53.266;10.410;2023-03-29T05:23:53;101332.34;;;5.92;100.00
10510;BME280;5303;53.266;10.410;2023-03-29T05:26:20;101332.88;;;5.97;100.00
10510;BME280;5303;53.266;10.410;2023-03-29T05:28:46;101331.88;;;5.98;100.00
10510;BME280;5303;53.266;10.410;2023-03-29T05:31:11;101331.59;;;6.01;100.00
10510;BME280;5303;53.266;10.410;2023-03-29T05:33:37;101334.31;;;6.01;100.00
10510;BME280;5303;53.266;10.410;2023-03-29T05:36:11;101323.09;;;6.06;100.00
10510;BME280;5303;53.266;10.410;2023-03-29T05:38:38;101323.41;;;6.13;100.00
10510;BME280;5303;53.266;10.410;2023-03-29T05:41:03;101324.16;;;6.15;100.00
10510;BME280;5303;53.266;10.410;2023-03-29T05:43:30;101309.63;;;6.16;100.00
10510;BME280;5303;53.266;10.410;2023-03-29T05:45:55;101304.09;;;6.17;100.00
10510;BME280;5303;53.266;10.410;2023-03-29T05:48:22;101300.38;;;6.18;100.00
10510;BME280;5303;53.266;10.410;2023-03-29T05:50:48;101289.63;;;6.28;100.00
10510;BME280;5303;53.266;10.410;2023-03-29T05:53:15;101293.19;;;6.28;100.00
10510;BME280;5303;53.266;10.410;2023-03-29T05:55:41;101293.59;;;6.24;100.00
10510;BME280;5303;53.266;10.410;2023-03-29T05:58:07;101290.09;;;6.33;100.00
10510;BME280;5303;53.266;10.410;2023-03-29T06:00:32;101289.09;;;6.34;100.00
10510;BME280;5303;53.266;10.410;2023-03-29T06:03:01;101284.00;;;6.41;100.00
10510;BME280;5303;53.266;10.410;2023-03-29T06:05:26;101282.03;;;6.43;100.00
10510;BME280;5303;53.266;10.410;2023-03-29T06:07:51;101275.38;;;6.57;100.00
10510;BME280;5303;53.266;10.410;2023-03-29T06:10:17;101283.28;;;6.69;100.00
10510;BME280;5303;53.266;10.410;2023-03-29T06:12:45;101279.00;;;6.76;100.00
10510;BME280;5303;53.266;10.410;2023-03-29T06:15:14;101285.59;;;6.84;100.00
10510;BME280;5303;53.266;10.410;2023-03-29T06:17:40;101278.50;;;6.92;100.00
10510;BME280;5303;53.266;10.410;2023-03-29T06:20:07;101278.06;;;6.87;100.00
10510;BME280;5303;53.266;10.410;2023-03-29T06:22:34;101287.19;;;6.96;100.00
10510;BME280;5303;53.266;10.410;2023-03-29T06:25:00;101277.53;;;6.93;100.00
10510;BME280;5303;53.266;10.410;2023-03-29T06:27:26;101286.81;;;7.00;100.00
10510;BME280;5303;53.266;10.410;2023-03-29T06:29:52;101287.22;;;7.06;100.00
10510;BME280;5303;53.266;10.410;2023-03-29T06:32:18;101294.13;;;7.19;100.00
10510;BME280;5303;53.266;10.410;2023-03-29T06:34:44;101292.38;;;7.09;100.00
10510;BME280;5303;53.266;10.410;2023-03-29T06:37:09;101285.53;;;7.14;100.00
10510;BME280;5303;53.266;10.410;2023-03-29T06:39:34;101287.44;;;7.33;100.00
10510;BME280;5303;53.266;10.410;2023-03-29T06:42:00;101288.28;;;7.43;100.00
10510;BME280;5303;53.266;10.410;2023-03-29T06:44:25;101286.56;;;7.33;100.00
10510;BME280;5303;53.266;10.410;2023-03-29T06:46:52;101280.88;;;7.45;100.00
10510;BME280;5303;53.266;10.410;2023-03-29T06:49:18;101271.47;;;7.40;100.00
10510;BME280;5303;53.266;10.410;2023-03-29T06:51:43;101278.00;;;7.57;100.00
10510;BME280;5303;53.266;10.410;2023-03-29T06:54:09;101276.59;;;7.72;100.00
10510;BME280;5303;53.266;10.410;2023-03-29T06:56:35;101277.88;;;7.68;100.00
10510;BME280;5303;53.266;10.410;2023-03-29T06:59:01;101280.03;;;7.74;100.00
10510;BME280;5303;53.266;10.410;2023-03-29T07:01:26;101274.72;;;7.73;100.00
10510;BME280;5303;53.266;10.410;2023-03-29T07:03:52;101271.44;;;7.79;100.00
10510;BME280;5303;53.266;10.410;2023-03-29T07:06:18;101279.59;;;7.69;100.00
10510;BME280;5303;53.266;10.410;2023-03-29T07:08:47;101282.75;;;7.74;100.00
10510;BME280;5303;53.266;10.410;2023-03-29T07:11:14;101285.00;;;7.88;100.00
10510;BME280;5303;53.266;10.410;2023-03-29T07:13:40;101289.72;;;7.77;100.00
10510;BME280;5303;53.266;10.410;2023-03-29T07:16:10;101290.03;;;7.83;100.00
10510;BME280;5303;53.266;10.410;2023-03-29T07:18:38;101295.13;;;7.86;100.00
10510;BME280;5303;53.266;10.410;2023-03-29T07:21:04;101292.00;;;7.91;100.00
10510;BME280;5303;53.266;10.410;2023-03-29T07:23:30;101294.41;;;7.94;100.00
10510;BME280;5303;53.266;10.410;2023-03-29T07:25:55;101296.13;;;8.05;100.00
10510;BME280;5303;53.266;10.410;2023-03-29T07:28:20;101291.13;;;8.00;100.00
10510;BME280;5303;53.266;10.410;2023-03-29T07:30:46;101291.38;;;8.16;100.00
10510;BME280;5303;53.266;10.410;2023-03-29T07:33:11;101286.22;;;8.23;100.00
10510;BME280;5303;53.266;10.410;2023-03-29T07:35:38;101285.34;;;8.42;100.00
10510;BME280;5303;53.266;10.410;2023-03-29T07:38:03;101278.50;;;8.48;100.00
10510;BME280;5303;53.266;10.410;2023-03-29T07:40:29;101276.34;;;8.42;100.00
10510;BME280;5303;53.266;10.410;2023-03-29T07:42:55;101268.88;;;8.53;100.00
10510;BME280;5303;53.266;10.410;2023-03-29T07:45:22;101264.88;;;8.57;100.00
10510;BME280;5303;53.266;10.410;2023-03-29T07:47:53;101273.88;;;8.58;100.00
10510;BME280;5303;53.266;10.410;2023-03-29T07:50:18;101264.78;;;8.77;100.00
10510;BME280;5303;53.266;10.410;2023-03-29T07:52:43;101267.19;;;8.80;100.00
10510;BME280;5303;53.266;10.410;2023-03-29T07:55:10;101261.41;;;8.93;100.00
10510;BME280;5303;53.266;10.410;2023-03-29T07:57:37;101261.66;;;8.99;100.00
10510;BME280;5303;53.266;10.410;2023-03-29T08:00:03;101259.41;;;9.13;100.00
10510;BME280;5303;53.266;10.410;2023-03-29T08:02:35;101257.25;;;9.34;100.00
10510;BME280;5303;53.266;10.410;2023-03-29T08:05:01;101252.47;;;9.28;100.00
10510;BME280;5303;53.266;10.410;2023-03-29T08:07:26;101256.56;;;9.50;100.00
10510;BME280;5303;53.266;10.410;2023-03-29T08:09:52;101248.41;;;9.50;100.00
10510;BME280;5303;53.266;10.410;2023-03-29T08:12:17;101253.53;;;9.53;100.00
10510;BME280;5303;53.266;10.410;2023-03-29T08:14:42;101250.31;;;9.75;100.00
10510;BME280;5303;53.266;10.410;2023-03-29T08:17:08;101252.63;;;9.88;100.00
10510;BME280;5303;53.266;10.410;2023-03-29T08:19:33;101251.88;;;9.96;100.00
10510;BME280;5303;53.266;10.410;2023-03-29T08:21:59;101251.22;;;10.02;100.00
10510;BME280;5303;53.266;10.410;2023-03-29T08:24:24;101250.00;;;9.96;100.00
10510;BME280;5303;53.266;10.410;2023-03-29T08:26:50;101240.66;;;9.99;100.00
10510;BME280;5303;53.266;10.410;2023-03-29T08:29:16;101257.13;;;9.97;100.00
10510;BME280;5303;53.266;10.410;2023-03-29T08:31:41;101244.59;;;10.04;100.00
10510;BME280;5303;53.266;10.410;2023-03-29T08:34:06;101237.66;;;10.10;100.00
10510;BME280;5303;53.266;10.410;2023-03-29T08:36:33;101242.97;;;10.12;100.00
10510;BME280;5303;53.266;10.410;2023-03-29T08:38:58;101252.75;;;10.04;100.00
10510;BME280;5303;53.266;10.410;2023-03-29T08:47:03;101244.44;;;10.06;100.00
10510;BME280;5303;53.266;10.410;2023-03-29T08:49:36;101235.97;;;10.09;100.00
10510;BME280;5303;53.266;10.410;2023-03-29T08:52:05;101241.41;;;10.09;100.00
10510;BME280;5303;53.266;10.410;2023-03-29T08:54:40;101231.03;;;10.13;100.00
10510;BME280;5303;53.266;10.410;2023-03-29T08:57:27;101232.19;;;10.28;100.00
10510;BME280;5303;53.266;10.410;2023-03-29T08:59:56;101231.75;;;10.41;100.00
10510;BME280;5303;53.266;10.410;2023-03-29T09:02:28;101232.88;;;10.30;100.00
10510;BME280;5303;53.266;10.410;2023-03-29T09:05:04;101230.34;;;10.37;100.00
10510;BME280;5303;53.266;10.410;2023-03-29T09:07:31;101227.00;;;10.43;100.00
10510;BME280;5303;53.266;10.410;2023-03-29T09:09:56;101224.25;;;10.43;100.00
10510;BME280;5303;53.266;10.410;2023-03-29T09:12:33;101219.84;;;10.42;100.00
10510;BME280;5303;53.266;10.410;2023-03-29T09:15:13;101221.28;;;10.62;100.00
10510;BME280;5303;53.266;10.410;2023-03-29T09:17:48;101225.75;;;10.71;100.00
10510;BME280;5303;53.266;10.410;2023-03-29T09:20:46;101218.84;;;10.85;100.00
10510;BME280;5303;53.266;10.410;2023-03-29T09:23:33;101220.06;;;11.07;100.00
10510;BME280;5303;53.266;10.410;2023-03-29T09:26:11;101213.78;;;11.07;100.00
10510;BME280;5303;53.266;10.410;2023-03-29T09:28:49;101214.50;;;11.25;100.00
10510;BME280;5303;53.266;10.410;2023-03-29T09:31:24;101211.06;;;11.23;100.00
10510;BME280;5303;53.266;10.410;2023-03-29T09:33:56;101210.59;;;11.28;100.00
10510;BME280;5303;53.266;10.410;2023-03-29T09:39:10;101198.16;;;11.41;100.00
10510;BME280;5303;53.266;10.410;2023-03-29T09:41:46;101191.84;;;11.41;100.00
10510;BME280;5303;53.266;10.410;2023-03-29T09:44:19;101190.13;;;11.32;100.00
10510;BME280;5303;53.266;10.410;2023-03-29T09:46:55;101185.03;;;11.37;100.00
10510;BME280;5303;53.266;10.410;2023-03-29T09:49:26;101188.59;;;11.29;100.00
10510;BME280;5303;53.266;10.410;2023-03-29T09:51:55;101187.41;;;11.48;100.00
10510;BME280;5303;53.266;10.410;2023-03-29T09:54:21;101194.06;;;11.46;100.00
10510;BME280;5303;53.266;10.410;2023-03-29T09:56:46;101191.16;;;11.55;100.00
10510;BME280;5303;53.266;10.410;2023-03-29T09:59:12;101186.91;;;11.69;100.00
10510;BME280;5303;53.266;10.410;2023-03-29T10:01:42;101180.25;;;11.55;100.00
10510;BME280;5303;53.266;10.410;2023-03-29T10:04:11;101178.19;;;11.90;100.00
10510;BME280;5303;53.266;10.410;2023-03-29T10:06:41;101168.28;;;11.97;100.00
10510;BME280;5303;53.266;10.410;2023-03-29T10:09:19;101168.47;;;11.87;100.00
10510;BME280;5303;53.266;10.410;2023-03-29T10:11:48;101160.09;;;12.05;100.00
10510;BME280;5303;53.266;10.410;2023-03-29T10:14:18;101157.22;;;11.91;100.00
10510;BME280;5303;53.266;10.410;2023-03-29T10:16:46;101157.69;;;12.10;100.00
10510;BME280;5303;53.266;10.410;2023-03-29T10:19:30;101150.84;;;12.15;100.00
10510;BME280;5303;53.266;10.410;2023-03-29T10:22:01;101147.28;;;12.06;100.00
10510;BME280;5303;53.266;10.410;2023-03-29T10:24:26;101146.03;;;12.33;100.00
10510;BME280;5303;53.266;10.410;2023-03-29T10:26:56;101144.28;;;12.40;100.00
10510;BME280;5303;53.266;10.410;2023-03-29T10:29:23;101152.84;;;12.29;100.00
10510;BME280;5303;53.266;10.410;2023-03-29T10:31:50;101156.59;;;12.28;100.00
10510;BME280;5303;53.266;10.410;2023-03-29T10:34:16;101154.66;;;12.45;100.00
10510;BME280;5303;53.266;10.410;2023-03-29T10:36:57;101148.00;;;12.47;100.00
10510;BME280;5303;53.266;10.410;2023-03-29T10:39:26;101150.78;;;12.39;100.00
10510;BME280;5303;53.266;10.410;2023-03-29T10:41:52;101152.03;;;12.20;100.00
10510;BME280;5303;53.266;10.410;2023-03-29T10:44:30;101143.69;;;12.14;100.00
10510;BME280;5303;53.266;10.410;2023-03-29T10:47:06;101137.19;;;12.15;100.00
10510;BME280;5303;53.266;10.410;2023-03-29T10:49:39;101138.38;;;12.20;100.00
10510;BME280;5303;53.266;10.410;2023-03-29T10:52:05;101146.03;;;12.25;100.00
10510;BME280;5303;53.266;10.410;2023-03-29T10:54:31;101149.50;;;12.10;100.00
10510;BME280;5303;53.266;10.410;2023-03-29T10:57:03;101152.72;;;12.14;100.00
10510;BME280;5303;53.266;10.410;2023-03-29T10:59:30;101152.34;;;12.25;100.00
10510;BME280;5303;53.266;10.410;2023-03-29T11:04:44;101154.41;;;12.23;100.00
10510;BME280;5303;53.266;10.410;2023-03-29T11:10:33;101153.09;;;12.11;100.00
10510;BME280;5303;53.266;10.410;2023-03-29T11:15:43;101149.16;;;12.05;100.00
10510;BME280;5303;53.266;10.410;2023-03-29T11:18:24;101141.47;;;12.09;100.00
10510;BME280;5303;53.266;10.410;2023-03-29T11:21:03;101136.50;;;12.12;100.00
10510;BME280;5303;53.266;10.410;2023-03-29T11:28:55;101130.34;;;12.19;100.00
10510;BME280;5303;53.266;10.410;2023-03-29T11:31:35;101125.38;;;12.22;100.00
10510;BME280;5303;53.266;10.410;2023-03-29T11:37:20;101128.03;;;12.39;100.00
10510;BME280;5303;53.266;10.410;2023-03-29T11:40:21;101132.28;;;12.49;100.00
10510;BME280;5303;53.266;10.410;2023-03-29T11:42:52;101116.44;;;12.68;100.00
10510;BME280;5303;53.266;10.410;2023-03-29T11:45:28;101115.63;;;12.90;100.00
10510;BME280;5303;53.266;10.410;2023-03-29T11:47:58;101113.22;;;12.95;100.00
10510;BME280;5303;53.266;10.410;2023-03-29T11:50:30;101116.00;;;13.10;100.00
10510;BME280;5303;53.266;10.410;2023-03-29T11:53:02;101112.28;;;13.03;100.00
10510;BME280;5303;53.266;10.410;2023-03-29T11:55:36;101110.44;;;13.03;100.00
10510;BME280;5303;53.266;10.410;2023-03-29T11:58:14;101122.34;;;12.88;100.00
10510;BME280;5303;53.266;10.410;2023-03-29T12:00:47;101122.69;;;12.85;100.00
10510;BME280;5303;53.266;10.410;2023-03-29T12:03:36;101125.91;;;12.88;100.00
10510;BME280;5303;53.266;10.410;2023-03-29T12:06:13;101117.25;;;12.76;100.00
10510;BME280;5303;53.266;10.410;2023-03-29T12:11:29;101113.75;;;12.91;100.00
10510;BME280;5303;53.266;10.410;2023-03-29T12:14:22;101110.47;;;12.95;100.00
10510;BME280;5303;53.266;10.410;2023-03-29T12:16:57;101115.22;;;13.01;100.00
10510;BME280;5303;53.266;10.410;2023-03-29T12:19:30;101105.66;;;12.74;100.00
10510;BME280;5303;53.266;10.410;2023-03-29T12:21:59;101101.09;;;13.13;100.00
10510;BME280;5303;53.266;10.410;2023-03-29T12:24:28;101099.34;;;13.20;100.00
10510;BME280;5303;53.266;10.410;2023-03-29T12:35:26;101079.19;;;13.59;100.00
10510;BME280;5303;53.266;10.410;2023-03-29T12:38:22;101084.94;;;13.64;100.00
10510;BME280;5303;53.266;10.410;2023-03-29T12:40:58;101087.59;;;13.72;100.00
10510;BME280;5303;53.266;10.410;2023-03-29T12:43:30;101090.13;;;13.73;100.00
10510;BME280;5303;53.266;10.410;2023-03-29T12:46:06;101083.16;;;13.86;100.00
10510;BME280;5303;53.266;10.410;2023-03-29T12:48:32;101082.88;;;13.66;100.00
10510;BME280;5303;53.266;10.410;2023-03-29T12:51:01;101089.66;;;13.55;100.00
10510;BME280;5303;53.266;10.410;2023-03-29T12:53:35;101091.94;;;13.51;100.00
10510;BME280;5303;53.266;10.410;2023-03-29T13:09:21;101079.25;;;13.50;100.00
10510;BME280;5303;53.266;10.410;2023-03-29T13:14:20;101073.34;;;13.77;100.00
10510;BME280;5303;53.266;10.410;2023-03-29T13:16:48;101071.28;;;13.93;100.00
10510;BME280;5303;53.266;10.410;2023-03-29T13:24:36;101075.44;;;14.04;100.00
10510;BME280;5303;53.266;10.410;2023-03-29T13:30:24;101074.13;;;14.00;100.00
10510;BME280;5303;53.266;10.410;2023-03-29T13:33:02;101061.25;;;14.01;100.00
10510;BME280;5303;53.266;10.410;2023-03-29T13:38:21;101060.03;;;14.03;100.00
10510;BME280;5303;53.266;10.410;2023-03-29T13:41:03;101052.28;;;13.92;100.00
10510;BME280;5303;53.266;10.410;2023-03-29T13:43:31;101054.56;;;14.03;100.00
10510;BME280;5303;53.266;10.410;2023-03-29T13:53:50;101049.50;;;14.21;100.00
10510;BME280;5303;53.266;10.410;2023-03-29T13:56:31;101049.88;;;14.33;100.00
10510;BME280;5303;53.266;10.410;2023-03-29T13:59:16;101045.06;;;14.35;100.00
10510;BME280;5303;53.266;10.410;2023-03-29T14:01:49;101047.81;;;14.35;100.00
10510;BME280;5303;53.266;10.410;2023-03-29T14:04:23;101054.97;;;14.36;100.00
10510;BME280;5303;53.266;10.410;2023-03-29T14:06:53;101046.97;;;14.20;100.00
10510;BME280;5303;53.266;10.410;2023-03-29T14:09:22;101038.00;;;14.26;100.00
10510;BME280;5303;53.266;10.410;2023-03-29T14:11:50;101037.31;;;14.24;100.00
10510;BME280;5303;53.266;10.410;2023-03-29T14:14:15;101037.75;;;14.06;100.00
10510;BME280;5303;53.266;10.410;2023-03-29T14:16:45;101030.16;;;14.08;100.00
10510;BME280;5303;53.266;10.410;2023-03-29T14:19:17;101014.13;;;14.05;100.00